sensor_id;sensor_type;location;lat;lon;timestamp;temperature;humidity
44190;DHT22;29856;52.144;5.430;2023-05-07T00:00:23;16.30;99.90
44190;DHT22;29856;52.144;5.430;2023-05-07T00:02:49;16.30;99.90
44190;DHT22;29856;52.144;5.430;2023-05-07T00:05:15;16.20;99.90
44190;DHT22;29856;52.144;5.430;2023-05-07T00:07:43;16.10;99.90
44190;DHT22;29856;52.144;5.430;2023-05-07T00:10:10;16.00;99.90
44190;DHT22;29856;52.144;5.430;2023-05-07T00:12:35;16.00;99.90
44190;DHT22;29856;52.144;5.430;2023-05-07T00:15:05;16.00;99.90
44190;DHT22;29856;52.144;5.430;2023-05-07T00:17:31;16.00;99.90
44190;DHT22;29856;52.144;5.430;2023-05-07T00:19:56;16.10;99.90
44190;DHT22;29856;52.144;5.430;2023-05-07T00:22:21;16.20;99.90
44190;DHT22;29856;52.144;5.430;2023-05-07T00:24:47;16.10;99.90
44190;DHT22;29856;52.144;5.430;2023-05-07T00:27:12;16.10;99.90
44190;DHT22;29856;52.144;5.430;2023-05-07T00:29:38;16.10;99.90
44190;DHT22;29856;52.144;5.430;2023-05-07T00:32:04;16.10;99.90
44190;DHT22;29856;52.144;5.430;2023-05-07T00:34:30;16.10;99.90
44190;DHT22;29856;52.144;5.430;2023-05-07T00:36:55;16.00;99.90
44190;DHT22;29856;52.144;5.430;2023-05-07T00:39:21;16.10;99.90
44190;DHT22;29856;52.144;5.430;2023-05-07T00:41:46;16.00;99.90
44190;DHT22;29856;52.144;5.430;2023-05-07T00:44:13;16.00;99.90
44190;DHT22;29856;52.144;5.430;2023-05-07T00:46:38;16.00;99.90
44190;DHT22;29856;52.144;5.430;2023-05-07T00:49:04;15.90;99.90
44190;DHT22;29856;52.144;5.430;2023-05-07T00:51:30;15.90;99.90
44190;DHT22;29856;52.144;5.430;2023-05-07T00:53:56;16.00;99.90
44190;DHT22;29856;52.144;5.430;2023-05-07T00:56:21;16.00;99.90
44190;DHT22;29856;52.144;5.430;2023-05-07T00:58:48;15.90;99.90
44190;DHT22;29856;52.144;5.430;2023-05-07T01:01:13;15.90;99.90
44190;DHT22;29856;52.144;5.430;2023-05-07T01:03:39;15.90;99.90
44190;DHT22;29856;52.144;5.430;2023-05-07T01:06:06;15.80;99.90
44190;DHT22;29856;52.144;5.430;2023-05-07T01:08:32;15.80;99.90
44190;DHT22;29856;52.144;5.430;2023-05-07T01:10:59;15.70;99.90
44190;DHT22;29856;52.144;5.430;2023-05-07T01:13:24;15.70;99.90
44190;DHT22;29856;52.144;5.430;2023-05-07T01:15:50;15.60;99.90
44190;DHT22;29856;52.144;5.430;2023-05-07T01:18:16;15.60;99.90
44190;DHT22;29856;52.144;5.430;2023-05-07T01:20:42;15.60;99.90
44190;DHT22;29856;52.144;5.430;2023-05-07T01:23:08;15.60;99.90
44190;DHT22;29856;52.144;5.430;2023-05-07T01:25:36;15.50;99.90
44190;DHT22;29856;52.144;5.430;2023-05-07T01:28:01;15.50;99.90
44190;DHT22;29856;52.144;5.430;2023-05-07T01:30:27;15.50;99.90
44190;DHT22;29856;52.144;5.430;2023-05-07T01:33:03;15.50;99.90
44190;DHT22;29856;52.144;5.430;2023-05-07T01:35:35;15.50;99.90
44190;DHT22;29856;52.144;5.430;2023-05-07T01:38:03;15.50;99.90
44190;DHT22;29856;52.144;5.430;2023-05-07T01:40:29;15.50;99.90
44190;DHT22;29856;52.144;5.430;2023-05-07T01:42:54;15.50;99.90
44190;DHT22;29856;52.144;5.430;2023-05-07T01:45:20;15.50;99.90
44190;DHT22;29856;52.144;5.430;2023-05-07T01:47:45;15.50;99.90
44190;DHT22;29856;52.144;5.430;2023-05-07T01:50:12;15.50;99.90
44190;DHT22;29856;52.144;5.430;2023-05-07T01:52:38;15.60;99.90
44190;DHT22;29856;52.144;5.430;2023-05-07T01:55:04;15.50;99.90
44190;DHT22;29856;52.144;5.430;2023-05-07T01:57:30;15.50;99.90
44190;DHT22;29856;52.144;5.430;2023-05-07T01:59:55;15.60;99.90
44190;DHT22;29856;52.144;5.430;2023-05-07T02:02:21;15.50;99.90
44190;DHT22;29856;52.144;5.430;2023-05-07T02:04:46;15.50;99.90
44190;DHT22;29856;52.144;5.430;2023-05-07T02:07:12;15.50;99.90
44190;DHT22;29856;52.144;5.430;2023-05-07T02:09:38;15.60;99.90
44190;DHT22;29856;52.144;5.430;2023-05-07T02:12:03;15.60;99.90
44190;DHT22;29856;52.144;5.430;2023-05-07T02:14:29;15.60;99.90
44190;DHT22;29856;52.144;5.430;2023-05-07T02:16:54;15.60;99.90
44190;DHT22;29856;52.144;5.430;2023-05-07T02:19:20;15.60;99.90
44190;DHT22;29856;52.144;5.430;2023-05-07T02:21:45;15.60;99.90
44190;DHT22;29856;52.144;5.430;2023-05-07T02:24:11;15.70;99.90
44190;DHT22;29856;52.144;5.430;2023-05-07T02:26:36;15.70;99.90
44190;DHT22;29856;52.144;5.430;2023-05-07T02:29:02;15.70;99.90
44190;DHT22;29856;52.144;5.430;2023-05-07T02:31:27;15.70;99.90
44190;DHT22;29856;52.144;5.430;2023-05-07T02:33:53;15.80;99.90
44190;DHT22;29856;52.144;5.430;2023-05-07T02:36:18;15.80;99.90
44190;DHT22;29856;52.144;5.430;2023-05-07T02:38:44;15.80;99.90
44190;DHT22;29856;52.144;5.430;2023-05-07T02:41:09;15.80;99.90
44190;DHT22;29856;52.144;5.430;2023-05-07T02:43:34;15.80;99.90
44190;DHT22;29856;52.144;5.430;2023-05-07T02:46:07;15.80;99.90
44190;DHT22;29856;52.144;5.430;2023-05-07T02:48:34;15.70;99.90
44190;DHT22;29856;52.144;5.430;2023-05-07T02:51:00;15.70;99.90
44190;DHT22;29856;52.144;5.430;2023-05-07T02:53:26;15.70;99.90
44190;DHT22;29856;52.144;5.430;2023-05-07T02:55:59;15.60;99.90
44190;DHT22;29856;52.144;5.430;2023-05-07T02:58:24;15.50;99.90
44190;DHT22;29856;52.144;5.430;2023-05-07T03:00:50;15.50;99.90
44190;DHT22;29856;52.144;5.430;2023-05-07T03:03:16;15.40;99.90
44190;DHT22;29856;52.144;5.430;2023-05-07T03:05:41;15.40;99.90
44190;DHT22;29856;52.144;5.430;2023-05-07T03:08:08;15.30;99.90
44190;DHT22;29856;52.144;5.430;2023-05-07T03:10:33;15.20;99.90
44190;DHT22;29856;52.144;5.430;2023-05-07T03:12:59;15.30;99.90
44190;DHT22;29856;52.144;5.430;2023-05-07T03:15:24;15.40;99.90
44190;DHT22;29856;52.144;5.430;2023-05-07T03:17:50;15.40;99.90
44190;DHT22;29856;52.144;5.430;2023-05-07T03:20:15;15.40;99.90
44190;DHT22;29856;52.144;5.430;2023-05-07T03:22:41;15.40;99.90
44190;DHT22;29856;52.144;5.430;2023-05-07T03:25:08;15.40;99.90
44190;DHT22;29856;52.144;5.430;2023-05-07T03:27:33;15.40;99.90
44190;DHT22;29856;52.144;5.430;2023-05-07T03:29:59;15.30;99.90
44190;DHT22;29856;52.144;5.430;2023-05-07T03:32:25;15.30;99.90
44190;DHT22;29856;52.144;5.430;2023-05-07T03:34:51;15.20;99.90
44190;DHT22;29856;52.144;5.430;2023-05-07T03:37:16;15.20;99.90
44190;DHT22;29856;52.144;5.430;2023-05-07T03:39:42;15.30;99.90
44190;DHT22;29856;52.144;5.430;2023-05-07T03:42:07;15.20;99.90
44190;DHT22;29856;52.144;5.430;2023-05-07T03:44:33;15.30;99.90
44190;DHT22;29856;52.144;5.430;2023-05-07T03:46:58;15.30;99.90
44190;DHT22;29856;52.144;5.430;2023-05-07T03:49:24;15.20;99.90
44190;DHT22;29856;52.144;5.430;2023-05-07T03:51:49;15.20;99.90
44190;DHT22;29856;52.144;5.430;2023-05-07T03:54:15;15.20;99.90
44190;DHT22;29856;52.144;5.430;2023-05-07T03:56:40;15.20;99.90
44190;DHT22;29856;52.144;5.430;2023-05-07T03:59:05;15.20;99.90
44190;DHT22;29856;52.144;5.430;2023-05-07T04:01:31;15.20;99.90
44190;DHT22;29856;52.144;5.430;2023-05-07T04:03:57;15.20;99.90
44190;DHT22;29856;52.144;5.430;2023-05-07T04:06:22;15.10;99.90
44190;DHT22;29856;52.144;5.430;2023-05-07T04:08:48;15.10;99.90
44190;DHT22;29856;52.144;5.430;2023-05-07T04:11:13;15.10;99.90
44190;DHT22;29856;52.144;5.430;2023-05-07T04:13:38;15.10;99.90
44190;DHT22;29856;52.144;5.430;2023-05-07T04:16:05;15.10;99.90
44190;DHT22;29856;52.144;5.430;2023-05-07T04:18:31;15.10;99.90
44190;DHT22;29856;52.144;5.430;2023-05-07T04:20:56;15.10;99.90
44190;DHT22;29856;52.144;5.430;2023-05-07T04:23:22;15.10;99.90
44190;DHT22;29856;52.144;5.430;2023-05-07T04:25:47;15.10;99.90
44190;DHT22;29856;52.144;5.430;2023-05-07T04:28:13;15.10;99.90
44190;DHT22;29856;52.144;5.430;2023-05-07T04:30:39;15.10;99.90
44190;DHT22;29856;52.144;5.430;2023-05-07T04:33:04;15.10;99.90
44190;DHT22;29856;52.144;5.430;2023-05-07T04:35:30;15.10;99.90
44190;DHT22;29856;52.144;5.430;2023-05-07T04:37:55;15.10;99.90
44190;DHT22;29856;52.144;5.430;2023-05-07T04:40:21;15.10;99.90
44190;DHT22;29856;52.144;5.430;2023-05-07T04:42:46;15.20;99.90
44190;DHT22;29856;52.144;5.430;2023-05-07T04:45:12;15.20;99.90
44190;DHT22;29856;52.144;5.430;2023-05-07T04:47:37;15.20;99.90
44190;DHT22;29856;52.144;5.430;2023-05-07T04:50:03;15.20;99.90
44190;DHT22;29856;52.144;5.430;2023-05-07T04:52:29;15.20;99.90
44190;DHT22;29856;52.144;5.430;2023-05-07T04:54:54;15.10;99.90
44190;DHT22;29856;52.144;5.430;2023-05-07T04:57:20;15.10;99.90
44190;DHT22;29856;52.144;5.430;2023-05-07T04:59:45;15.00;99.90
44190;DHT22;29856;52.144;5.430;2023-05-07T05:02:10;15.10;99.90
44190;DHT22;29856;52.144;5.430;2023-05-07T05:04:36;15.10;99.90
44190;DHT22;29856;52.144;5.430;2023-05-07T05:07:02;15.10;99.90
44190;DHT22;29856;52.144;5.430;2023-05-07T05:09:27;15.10;99.90
44190;DHT22;29856;52.144;5.430;2023-05-07T05:11:53;15.10;99.90
44190;DHT22;29856;52.144;5.430;2023-05-07T05:14:19;15.10;99.90
44190;DHT22;29856;52.144;5.430;2023-05-07T05:16:44;15.10;99.90
44190;DHT22;29856;52.144;5.430;2023-05-07T05:19:10;15.10;99.90
44190;DHT22;29856;52.144;5.430;2023-05-07T05:21:35;15.00;99.90
44190;DHT22;29856;52.144;5.430;2023-05-07T05:24:01;15.10;99.90
44190;DHT22;29856;52.144;5.430;2023-05-07T05:26:26;15.10;99.90
44190;DHT22;29856;52.144;5.430;2023-05-07T05:28:52;15.10;99.90
44190;DHT22;29856;52.144;5.430;2023-05-07T05:31:17;15.10;99.90
44190;DHT22;29856;52.144;5.430;2023-05-07T05:33:43;15.10;99.90
44190;DHT22;29856;52.144;5.430;2023-05-07T05:36:11;15.10;99.90
44190;DHT22;29856;52.144;5.430;2023-05-07T05:38:37;15.10;99.90
44190;DHT22;29856;52.144;5.430;2023-05-07T05:41:02;15.10;99.90
44190;DHT22;29856;52.144;5.430;2023-05-07T05:43:28;15.10;99.90
44190;DHT22;29856;52.144;5.430;2023-05-07T05:45:55;15.10;99.90
44190;DHT22;29856;52.144;5.430;2023-05-07T05:48:20;15.20;99.90
44190;DHT22;29856;52.144;5.430;2023-05-07T05:50:45;15.20;99.90
44190;DHT22;29856;52.144;5.430;2023-05-07T05:53:11;15.20;99.90
44190;DHT22;29856;52.144;5.430;2023-05-07T05:55:37;15.20;99.90
44190;DHT22;29856;52.144;5.430;2023-05-07T05:58:02;15.20;99.90
44190;DHT22;29856;52.144;5.430;2023-05-07T06:00:29;15.20;99.90
44190;DHT22;29856;52.144;5.430;2023-05-07T06:02:54;15.20;99.90
44190;DHT22;29856;52.144;5.430;2023-05-07T06:05:20;15.30;99.90
44190;DHT22;29856;52.144;5.430;2023-05-07T06:07:45;15.40;99.90
44190;DHT22;29856;52.144;5.430;2023-05-07T06:10:11;15.40;99.90
44190;DHT22;29856;52.144;5.430;2023-05-07T06:12:36;15.40;99.90
44190;DHT22;29856;52.144;5.430;2023-05-07T06:15:02;15.50;99.90
44190;DHT22;29856;52.144;5.430;2023-05-07T06:17:28;15.50;99.90
44190;DHT22;29856;52.144;5.430;2023-05-07T06:19:53;15.50;99.90
44190;DHT22;29856;52.144;5.430;2023-05-07T06:22:19;15.50;99.90
44190;DHT22;29856;52.144;5.430;2023-05-07T06:24:44;15.60;99.90
44190;DHT22;29856;52.144;5.430;2023-05-07T06:27:10;15.60;99.90
44190;DHT22;29856;52.144;5.430;2023-05-07T06:29:35;15.60;99.90
44190;DHT22;29856;52.144;5.430;2023-05-07T06:32:08;15.70;99.90
44190;DHT22;29856;52.144;5.430;2023-05-07T06:34:33;15.80;99.90
44190;DHT22;29856;52.144;5.430;2023-05-07T06:36:59;15.70;99.90
44190;DHT22;29856;52.144;5.430;2023-05-07T06:39:24;15.60;99.90
44190;DHT22;29856;52.144;5.430;2023-05-07T06:41:49;15.60;99.90
44190;DHT22;29856;52.144;5.430;2023-05-07T06:44:15;15.60;99.90
44190;DHT22;29856;52.144;5.430;2023-05-07T06:46:41;15.70;99.90
44190;DHT22;29856;52.144;5.430;2023-05-07T06:49:07;15.70;99.90
44190;DHT22;29856;52.144;5.430;2023-05-07T06:51:32;15.70;99.90
44190;DHT22;29856;52.144;5.430;2023-05-07T06:53:58;15.70;99.90
44190;DHT22;29856;52.144;5.430;2023-05-07T06:56:23;15.70;99.90
44190;DHT22;29856;52.144;5.430;2023-05-07T06:58:48;15.70;99.90
44190;DHT22;29856;52.144;5.430;2023-05-07T07:01:14;15.60;99.90
44190;DHT22;29856;52.144;5.430;2023-05-07T07:03:39;15.60;99.90
44190;DHT22;29856;52.144;5.430;2023-05-07T07:06:05;15.60;99.90
44190;DHT22;29856;52.144;5.430;2023-05-07T07:08:30;15.60;99.90
44190;DHT22;29856;52.144;5.430;2023-05-07T07:10:56;15.50;99.90
44190;DHT22;29856;52.144;5.430;2023-05-07T07:13:22;15.50;99.90
44190;DHT22;29856;52.144;5.430;2023-05-07T07:15:48;15.60;99.90
44190;DHT22;29856;52.144;5.430;2023-05-07T07:18:13;15.60;99.90
44190;DHT22;29856;52.144;5.430;2023-05-07T07:20:39;15.70;99.90
44190;DHT22;29856;52.144;5.430;2023-05-07T07:23:04;15.80;99.90
44190;DHT22;29856;52.144;5.430;2023-05-07T07:25:30;15.90;99.90
44190;DHT22;29856;52.144;5.430;2023-05-07T07:27:55;16.00;99.90
44190;DHT22;29856;52.144;5.430;2023-05-07T07:30:21;16.10;99.90
44190;DHT22;29856;52.144;5.430;2023-05-07T07:32:46;16.30;99.90
44190;DHT22;29856;52.144;5.430;2023-05-07T07:35:12;16.40;99.90
44190;DHT22;29856;52.144;5.430;2023-05-07T07:37:37;16.30;99.90
44190;DHT22;29856;52.144;5.430;2023-05-07T07:40:03;16.30;99.90
44190;DHT22;29856;52.144;5.430;2023-05-07T07:42:28;16.30;99.90
44190;DHT22;29856;52.144;5.430;2023-05-07T07:44:54;16.40;99.90
44190;DHT22;29856;52.144;5.430;2023-05-07T07:47:19;16.50;99.90
44190;DHT22;29856;52.144;5.430;2023-05-07T07:49:45;16.40;99.90
44190;DHT22;29856;52.144;5.430;2023-05-07T07:52:10;16.50;99.90
44190;DHT22;29856;52.144;5.430;2023-05-07T07:54:36;16.60;99.90
44190;DHT22;29856;52.144;5.430;2023-05-07T07:57:01;16.60;99.90
44190;DHT22;29856;52.144;5.430;2023-05-07T07:59:27;16.70;99.90
44190;DHT22;29856;52.144;5.430;2023-05-07T08:01:52;16.80;99.90
44190;DHT22;29856;52.144;5.430;2023-05-07T08:04:18;16.80;99.90
44190;DHT22;29856;52.144;5.430;2023-05-07T08:06:43;16.90;99.90
44190;DHT22;29856;52.144;5.430;2023-05-07T08:09:09;17.00;99.90
44190;DHT22;29856;52.144;5.430;2023-05-07T08:11:34;16.90;99.90
44190;DHT22;29856;52.144;5.430;2023-05-07T08:14:00;16.90;99.90
44190;DHT22;29856;52.144;5.430;2023-05-07T08:16:25;16.90;99.90
44190;DHT22;29856;52.144;5.430;2023-05-07T08:18:50;16.90;99.90
44190;DHT22;29856;52.144;5.430;2023-05-07T08:21:16;16.90;99.90
44190;DHT22;29856;52.144;5.430;2023-05-07T08:23:42;17.00;99.90
44190;DHT22;29856;52.144;5.430;2023-05-07T08:26:08;16.90;99.90
44190;DHT22;29856;52.144;5.430;2023-05-07T08:28:34;16.80;99.90
44190;DHT22;29856;52.144;5.430;2023-05-07T08:30:59;16.90;99.90
44190;DHT22;29856;52.144;5.430;2023-05-07T08:33:25;17.00;99.90
44190;DHT22;29856;52.144;5.430;2023-05-07T08:35:50;17.00;99.90
44190;DHT22;29856;52.144;5.430;2023-05-07T08:38:16;16.90;99.90
44190;DHT22;29856;52.144;5.430;2023-05-07T08:40:41;16.90;99.90
44190;DHT22;29856;52.144;5.430;2023-05-07T08:43:07;17.10;99.90
44190;DHT22;29856;52.144;5.430;2023-05-07T08:45:34;17.10;99.90
44190;DHT22;29856;52.144;5.430;2023-05-07T08:48:02;17.20;99.90
44190;DHT22;29856;52.144;5.430;2023-05-07T08:50:27;17.30;99.90
44190;DHT22;29856;52.144;5.430;2023-05-07T08:52:53;17.20;99.90
44190;DHT22;29856;52.144;5.430;2023-05-07T08:55:19;17.20;99.90
44190;DHT22;29856;52.144;5.430;2023-05-07T08:57:45;17.10;99.90
44190;DHT22;29856;52.144;5.430;2023-05-07T09:00:11;17.10;99.90
44190;DHT22;29856;52.144;5.430;2023-05-07T09:02:36;17.20;99.90
44190;DHT22;29856;52.144;5.430;2023-05-07T09:05:02;17.40;99.90
44190;DHT22;29856;52.144;5.430;2023-05-07T09:07:28;17.40;99.90
44190;DHT22;29856;52.144;5.430;2023-05-07T09:09:54;17.50;99.90
44190;DHT22;29856;52.144;5.430;2023-05-07T09:12:21;17.60;99.90
44190;DHT22;29856;52.144;5.430;2023-05-07T09:14:47;17.60;99.90
44190;DHT22;29856;52.144;5.430;2023-05-07T09:17:13;17.60;99.90
44190;DHT22;29856;52.144;5.430;2023-05-07T09:19:40;17.40;99.90
44190;DHT22;29856;52.144;5.430;2023-05-07T09:22:06;17.30;99.90
44190;DHT22;29856;52.144;5.430;2023-05-07T09:24:31;17.50;99.90
44190;DHT22;29856;52.144;5.430;2023-05-07T09:27:00;17.50;99.90
44190;DHT22;29856;52.144;5.430;2023-05-07T09:29:25;17.60;99.90
44190;DHT22;29856;52.144;5.430;2023-05-07T09:31:51;17.60;99.90
44190;DHT22;29856;52.144;5.430;2023-05-07T09:34:16;17.70;99.90
44190;DHT22;29856;52.144;5.430;2023-05-07T09:36:42;17.90;99.90
44190;DHT22;29856;52.144;5.430;2023-05-07T09:39:07;17.70;99.90
44190;DHT22;29856;52.144;5.430;2023-05-07T09:41:43;17.80;99.90
44190;DHT22;29856;52.144;5.430;2023-05-07T09:44:09;17.80;99.90
44190;DHT22;29856;52.144;5.430;2023-05-07T09:46:36;17.80;99.90
44190;DHT22;29856;52.144;5.430;2023-05-07T09:49:06;17.60;99.90
44190;DHT22;29856;52.144;5.430;2023-05-07T09:51:41;17.50;99.90
44190;DHT22;29856;52.144;5.430;2023-05-07T09:54:08;17.50;99.90
44190;DHT22;29856;52.144;5.430;2023-05-07T09:56:35;17.50;99.90
44190;DHT22;29856;52.144;5.430;2023-05-07T09:59:03;17.60;99.90
44190;DHT22;29856;52.144;5.430;2023-05-07T10:01:30;17.70;99.90
44190;DHT22;29856;52.144;5.430;2023-05-07T10:03:57;17.70;99.90
44190;DHT22;29856;52.144;5.430;2023-05-07T10:06:24;17.70;99.90
44190;DHT22;29856;52.144;5.430;2023-05-07T10:08:52;17.70;99.90
44190;DHT22;29856;52.144;5.430;2023-05-07T10:11:18;17.60;99.90
44190;DHT22;29856;52.144;5.430;2023-05-07T10:13:44;17.60;99.90
44190;DHT22;29856;52.144;5.430;2023-05-07T10:16:13;17.70;99.90
44190;DHT22;29856;52.144;5.430;2023-05-07T10:18:40;17.70;99.90
44190;DHT22;29856;52.144;5.430;2023-05-07T10:21:08;17.80;99.90
44190;DHT22;29856;52.144;5.430;2023-05-07T10:23:37;17.70;99.90
44190;DHT22;29856;52.144;5.430;2023-05-07T10:26:06;17.90;99.90
44190;DHT22;29856;52.144;5.430;2023-05-07T10:28:40;18.00;99.90
44190;DHT22;29856;52.144;5.430;2023-05-07T10:31:47;18.10;99.90
44190;DHT22;29856;52.144;5.430;2023-05-07T10:34:16;18.20;99.90
44190;DHT22;29856;52.144;5.430;2023-05-07T10:36:43;18.10;99.90
44190;DHT22;29856;52.144;5.430;2023-05-07T10:39:09;18.20;99.90
44190;DHT22;29856;52.144;5.430;2023-05-07T10:41:35;18.30;99.90
44190;DHT22;29856;52.144;5.430;2023-05-07T10:44:00;18.50;99.90
44190;DHT22;29856;52.144;5.430;2023-05-07T10:46:26;18.60;99.90
44190;DHT22;29856;52.144;5.430;2023-05-07T10:51:27;19.00;99.90
44190;DHT22;29856;52.144;5.430;2023-05-07T10:56:38;19.00;99.90
44190;DHT22;29856;52.144;5.430;2023-05-07T11:02:03;19.20;99.90
44190;DHT22;29856;52.144;5.430;2023-05-07T11:04:29;19.30;99.90
44190;DHT22;29856;52.144;5.430;2023-05-07T11:15:04;19.30;99.90
44190;DHT22;29856;52.144;5.430;2023-05-07T11:17:30;19.60;99.90
44190;DHT22;29856;52.144;5.430;2023-05-07T11:19:56;19.70;99.90
44190;DHT22;29856;52.144;5.430;2023-05-07T11:22:39;19.40;99.90
44190;DHT22;29856;52.144;5.430;2023-05-07T11:25:06;19.50;99.90
44190;DHT22;29856;52.144;5.430;2023-05-07T11:27:32;19.70;99.90
44190;DHT22;29856;52.144;5.430;2023-05-07T11:29:58;19.80;99.90
44190;DHT22;29856;52.144;5.430;2023-05-07T11:32:24;19.90;99.90
44190;DHT22;29856;52.144;5.430;2023-05-07T11:34:54;20.00;99.90
44190;DHT22;29856;52.144;5.430;2023-05-07T11:37:21;19.90;99.90
44190;DHT22;29856;52.144;5.430;2023-05-07T11:39:47;20.00;99.90
44190;DHT22;29856;52.144;5.430;2023-05-07T11:42:32;20.20;99.90
44190;DHT22;29856;52.144;5.430;2023-05-07T11:44:58;20.40;99.90
44190;DHT22;29856;52.144;5.430;2023-05-07T11:47:24;20.20;99.90
44190;DHT22;29856;52.144;5.430;2023-05-07T11:49:51;20.50;99.90
44190;DHT22;29856;52.144;5.430;2023-05-07T11:52:18;20.50;99.90
44190;DHT22;29856;52.144;5.430;2023-05-07T11:54:51;20.60;99.90
44190;DHT22;29856;52.144;5.430;2023-05-07T11:57:16;20.60;99.90
44190;DHT22;29856;52.144;5.430;2023-05-07T11:59:42;20.70;99.90
44190;DHT22;29856;52.144;5.430;2023-05-07T12:02:08;20.60;99.90
44190;DHT22;29856;52.144;5.430;2023-05-07T12:04:33;20.70;99.90
44190;DHT22;29856;52.144;5.430;2023-05-07T12:06:59;20.80;99.90
44190;DHT22;29856;52.144;5.430;2023-05-07T12:09:24;20.80;99.90
44190;DHT22;29856;52.144;5.430;2023-05-07T12:11:51;21.10;99.90
44190;DHT22;29856;52.144;5.430;2023-05-07T12:14:17;21.00;99.90
44190;DHT22;29856;52.144;5.430;2023-05-07T12:16:43;21.10;99.90
44190;DHT22;29856;52.144;5.430;2023-05-07T12:19:09;21.20;99.90
44190;DHT22;29856;52.144;5.430;2023-05-07T12:21:35;21.40;99.90
44190;DHT22;29856;52.144;5.430;2023-05-07T12:24:01;21.50;99.90
44190;DHT22;29856;52.144;5.430;2023-05-07T12:26:27;21.50;99.90
44190;DHT22;29856;52.144;5.430;2023-05-07T12:28:52;21.70;99.90
44190;DHT22;29856;52.144;5.430;2023-05-07T12:31:18;21.80;99.90
44190;DHT22;29856;52.144;5.430;2023-05-07T12:33:44;21.90;99.90
44190;DHT22;29856;52.144;5.430;2023-05-07T12:36:12;22.00;99.90
44190;DHT22;29856;52.144;5.430;2023-05-07T12:38:38;22.10;99.90
44190;DHT22;29856;52.144;5.430;2023-05-07T12:41:05;22.10;99.90
44190;DHT22;29856;52.144;5.430;2023-05-07T12:43:31;22.20;99.90
44190;DHT22;29856;52.144;5.430;2023-05-07T12:46:00;22.40;99.90
44190;DHT22;29856;52.144;5.430;2023-05-07T12:48:25;22.30;99.90
44190;DHT22;29856;52.144;5.430;2023-05-07T12:50:52;22.40;99.90
44190;DHT22;29856;52.144;5.430;2023-05-07T12:53:21;22.60;99.90
44190;DHT22;29856;52.144;5.430;2023-05-07T12:55:48;22.70;99.90
44190;DHT22;29856;52.144;5.430;2023-05-07T12:58:34;22.20;99.90
44190;DHT22;29856;52.144;5.430;2023-05-07T13:01:03;22.10;99.90
44190;DHT22;29856;52.144;5.430;2023-05-07T13:03:31;22.40;99.90
44190;DHT22;29856;52.144;5.430;2023-05-07T13:06:02;22.30;99.90
44190;DHT22;29856;52.144;5.430;2023-05-07T13:08:36;22.40;99.90
44190;DHT22;29856;52.144;5.430;2023-05-07T13:11:03;22.70;99.90
44190;DHT22;29856;52.144;5.430;2023-05-07T13:13:32;23.00;99.90
44190;DHT22;29856;52.144;5.430;2023-05-07T13:15:58;22.80;99.90
44190;DHT22;29856;52.144;5.430;2023-05-07T13:18:29;22.80;99.90
44190;DHT22;29856;52.144;5.430;2023-05-07T13:20:54;23.10;99.90
44190;DHT22;29856;52.144;5.430;2023-05-07T13:23:20;23.50;99.90
44190;DHT22;29856;52.144;5.430;2023-05-07T13:25:46;23.30;99.90
44190;DHT22;29856;52.144;5.430;2023-05-07T13:28:12;23.20;99.90
44190;DHT22;29856;52.144;5.430;2023-05-07T13:30:37;23.20;99.90
44190;DHT22;29856;52.144;5.430;2023-05-07T13:33:03;22.60;99.90
44190;DHT22;29856;52.144;5.430;2023-05-07T13:35:28;22.40;99.90
44190;DHT22;29856;52.144;5.430;2023-05-07T13:37:54;22.50;99.90
44190;DHT22;29856;52.144;5.430;2023-05-07T13:40:20;22.70;99.90
44190;DHT22;29856;52.144;5.430;2023-05-07T13:42:45;22.60;99.90
44190;DHT22;29856;52.144;5.430;2023-05-07T13:45:11;22.50;99.90
44190;DHT22;29856;52.144;5.430;2023-05-07T13:47:36;22.40;99.90
44190;DHT22;29856;52.144;5.430;2023-05-07T13:50:02;22.40;99.90
44190;DHT22;29856;52.144;5.430;2023-05-07T13:52:27;22.40;99.90
44190;DHT22;29856;52.144;5.430;2023-05-07T13:54:52;22.30;99.90
44190;DHT22;29856;52.144;5.430;2023-05-07T13:57:18;22.20;99.90
44190;DHT22;29856;52.144;5.430;2023-05-07T13:59:44;22.40;99.90
44190;DHT22;29856;52.144;5.430;2023-05-07T14:02:09;22.20;99.90
44190;DHT22;29856;52.144;5.430;2023-05-07T14:04:35;22.20;99.90
44190;DHT22;29856;52.144;5.430;2023-05-07T14:07:00;22.20;99.90
44190;DHT22;29856;52.144;5.430;2023-05-07T14:09:26;22.30;99.90
44190;DHT22;29856;52.144;5.430;2023-05-07T14:11:51;22.50;99.90
44190;DHT22;29856;52.144;5.430;2023-05-07T14:14:17;22.60;99.90
44190;DHT22;29856;52.144;5.430;2023-05-07T14:16:43;22.40;99.90
44190;DHT22;29856;52.144;5.430;2023-05-07T14:19:09;22.20;99.90
44190;DHT22;29856;52.144;5.430;2023-05-07T14:21:34;22.10;99.90
44190;DHT22;29856;52.144;5.430;2023-05-07T14:24:00;22.00;99.90
44190;DHT22;29856;52.144;5.430;2023-05-07T14:26:25;21.90;99.90
44190;DHT22;29856;52.144;5.430;2023-05-07T14:28:51;22.00;99.90
44190;DHT22;29856;52.144;5.430;2023-05-07T14:31:16;22.10;99.90
44190;DHT22;29856;52.144;5.430;2023-05-07T14:33:41;22.00;99.90
44190;DHT22;29856;52.144;5.430;2023-05-07T14:36:07;21.90;99.90
44190;DHT22;29856;52.144;5.430;2023-05-07T14:38:32;21.80;99.90
44190;DHT22;29856;52.144;5.430;2023-05-07T14:40:58;21.70;99.90
44190;DHT22;29856;52.144;5.430;2023-05-07T14:43:24;21.50;99.90
44190;DHT22;29856;52.144;5.430;2023-05-07T14:45:49;21.60;99.90
44190;DHT22;29856;52.144;5.430;2023-05-07T14:48:14;21.70;99.90
44190;DHT22;29856;52.144;5.430;2023-05-07T14:50:43;21.60;99.90
44190;DHT22;29856;52.144;5.430;2023-05-07T14:53:08;21.40;99.90
44190;DHT22;29856;52.144;5.430;2023-05-07T14:55:34;21.40;99.90
44190;DHT22;29856;52.144;5.430;2023-05-07T14:58:00;21.30;99.90
44190;DHT22;29856;52.144;5.430;2023-05-07T15:00:26;21.10;99.90
44190;DHT22;29856;52.144;5.430;2023-05-07T15:02:51;21.00;99.90
44190;DHT22;29856;52.144;5.430;2023-05-07T15:05:17;20.90;99.90
44190;DHT22;29856;52.144;5.430;2023-05-07T15:07:42;21.00;99.90
44190;DHT22;29856;52.144;5.430;2023-05-07T15:10:08;21.00;99.90
44190;DHT22;29856;52.144;5.430;2023-05-07T15:12:33;20.90;99.90
44190;DHT22;29856;52.144;5.430;2023-05-07T15:14:59;20.80;99.90
44190;DHT22;29856;52.144;5.430;2023-05-07T15:17:24;20.60;99.90
44190;DHT22;29856;52.144;5.430;2023-05-07T15:19:50;20.60;99.90
44190;DHT22;29856;52.144;5.430;2023-05-07T15:22:15;20.60;99.90
44190;DHT22;29856;52.144;5.430;2023-05-07T15:24:41;20.60;99.90
44190;DHT22;29856;52.144;5.430;2023-05-07T15:27:06;20.60;99.90
44190;DHT22;29856;52.144;5.430;2023-05-07T15:29:32;20.80;99.90
44190;DHT22;29856;52.144;5.430;2023-05-07T15:31:57;20.80;99.90
44190;DHT22;29856;52.144;5.430;2023-05-07T15:34:23;20.80;99.90
44190;DHT22;29856;52.144;5.430;2023-05-07T15:36:48;20.80;99.90
44190;DHT22;29856;52.144;5.430;2023-05-07T15:39:14;20.60;99.90